Time;durP1;ratioP1;P1;durP2;ratioP2;P2;SDS_P1;SDS_P2;PMS_P1;PMS_P2;Temp;Humidity;BMP_temperature;BMP_pressure;BME280_temperature;BME280_humidity;BME280_pressure;Samples;Min_cycle;Max_cycle;Signal;HPM_P1;HPM_P2
2021/05/24 00:01:28;;;;;;;1.23;0.50;;;13.40;99.90;;;;;;4156116;28;20037;-65
2021/05/24 00:03:30;;;;;;;0.40;0.30;;;13.40;99.90;;;;;;4155441;28;20116;-65
2021/05/24 00:05:34;;;;;;;0.80;0.40;;;13.30;99.90;;;;;;4155711;28;20033;-65
2021/05/24 00:07:35;;;;;;;0.57;0.57;;;13.30;99.90;;;;;;4155888;28;20594;-64
2021/05/24 00:09:37;;;;;;;0.33;0.20;;;13.30;99.90;;;;;;4155615;28;20033;-64
2021/05/24 00:11:38;;;;;;;0.87;0.40;;;13.30;99.90;;;;;;4154252;28;20025;-65
2021/05/24 00:13:52;;;;;;;0.50;0.30;;;13.30;99.90;;;;;;4138776;28;20443;-64
2021/05/24 00:15:56;;;;;;;0.50;0.50;;;13.30;99.90;;;;;;4139609;28;20056;-66
2021/05/24 00:17:57;;;;;;;1.17;0.50;;;13.30;99.90;;;;;;4139440;28;20475;-67
2021/05/24 00:19:58;;;;;;;1.53;0.60;;;13.20;99.90;;;;;;4139457;28;20034;-66
2021/05/24 00:22:00;;;;;;;0.70;0.50;;;13.20;99.90;;;;;;4138846;28;20045;-66
2021/05/24 00:24:01;;;;;;;0.50;0.40;;;13.10;99.90;;;;;;4139463;28;20133;-68
2021/05/24 00:26:02;;;;;;;1.00;0.60;;;13.10;99.90;;;;;;4139069;28;20046;-65
2021/05/24 00:28:04;;;;;;;0.40;0.40;;;13.10;99.90;;;;;;4144672;28;20033;-67
2021/05/24 00:30:06;;;;;;;1.90;0.53;;;13.10;99.90;;;;;;4154782;28;20045;-66
2021/05/24 00:32:07;;;;;;;1.33;0.50;;;13.00;99.90;;;;;;4156124;28;20580;-65
2021/05/24 00:34:08;;;;;;;1.40;0.63;;;13.00;99.90;;;;;;4154616;28;20041;-65
2021/05/24 00:36:10;;;;;;;0.63;0.53;;;13.00;99.90;;;;;;4155337;28;20049;-66
2021/05/24 00:38:11;;;;;;;3.37;0.60;;;13.00;99.90;;;;;;4154614;28;20045;-65
2021/05/24 00:40:13;;;;;;;2.60;0.90;;;12.90;99.90;;;;;;4154940;28;20041;-65
2021/05/24 00:42:14;;;;;;;1.13;0.70;;;12.90;99.90;;;;;;4155083;28;20390;-66
2021/05/24 00:44:16;;;;;;;1.03;0.70;;;12.90;99.90;;;;;;4154477;28;20037;-65
2021/05/24 00:46:17;;;;;;;4.13;0.70;;;13.00;99.90;;;;;;4155600;28;20445;-66
2021/05/24 00:48:18;;;;;;;3.77;0.80;;;13.00;99.90;;;;;;4154910;28;20076;-66
2021/05/24 00:50:20;;;;;;;0.83;0.57;;;13.00;99.90;;;;;;4155989;28;20029;-65
2021/05/24 00:52:21;;;;;;;3.43;0.70;;;13.00;99.90;;;;;;4155066;28;20068;-65
2021/05/24 00:54:23;;;;;;;1.73;0.70;;;13.00;99.90;;;;;;4153721;28;21015;-65
2021/05/24 00:56:25;;;;;;;2.17;0.80;;;13.00;99.90;;;;;;4151804;28;20544;-66
2021/05/24 00:58:26;;;;;;;1.47;0.60;;;13.00;99.90;;;;;;4138656;28;20821;-67
2021/05/24 01:00:36;;;;;;;3.27;0.67;;;13.00;99.90;;;;;;4138209;28;20041;-67
2021/05/24 01:02:37;;;;;;;3.05;0.90;;;12.90;99.90;;;;;;4138976;28;20087;-67
2021/05/24 01:04:38;;;;;;;1.53;0.97;;;12.90;99.90;;;;;;4137391;28;20046;-66
2021/05/24 01:06:39;;;;;;;1.93;0.63;;;12.90;99.90;;;;;;4138436;28;20100;-65
2021/05/24 01:08:40;;;;;;;1.57;0.80;;;12.90;99.90;;;;;;4138023;28;20553;-64
2021/05/24 01:10:43;;;;;;;3.50;0.80;;;12.90;99.90;;;;;;4139078;28;20025;-67
2021/05/24 01:12:44;;;;;;;3.00;1.40;;;13.00;99.90;;;;;;4138021;28;20495;-67
2021/05/24 01:14:45;;;;;;;2.50;0.90;;;13.00;99.90;;;;;;4139181;28;20537;-65
2021/05/24 01:16:50;;;;;;;1.00;0.90;;;13.10;99.90;;;;;;4152770;28;20088;-66
2021/05/24 01:18:52;;;;;;;1.30;1.20;;;13.10;99.90;;;;;;4154447;28;20083;-66
2021/05/24 01:20:53;;;;;;;1.30;1.20;;;13.10;99.90;;;;;;4155336;28;20076;-65
2021/05/24 01:25:06;;;;;;;1.47;1.33;;;13.10;99.90;;;;;;4155427;28;20095;-65
2021/05/24 01:27:07;;;;;;;1.33;1.00;;;13.10;99.90;;;;;;4154498;28;20045;-65
2021/05/24 01:29:09;;;;;;;3.57;1.57;;;13.10;99.90;;;;;;4155497;28;20041;-64
2021/05/24 01:31:11;;;;;;;1.70;1.60;;;13.10;99.90;;;;;;4153921;28;20080;-64
2021/05/24 01:33:12;;;;;;;3.07;1.70;;;13.10;99.90;;;;;;4141136;28;20441;-66
2021/05/24 01:35:14;;;;;;;3.93;1.97;;;13.10;99.90;;;;;;4154002;28;20034;-68
2021/05/24 01:37:15;;;;;;;1.93;1.37;;;13.10;99.90;;;;;;4155259;28;20466;-65
2021/05/24 01:39:19;;;;;;;2.17;1.47;;;13.10;99.90;;;;;;4154299;28;20163;-66
2021/05/24 01:41:21;;;;;;;2.70;1.97;;;13.10;99.90;;;;;;4154853;28;20088;-68
2021/05/24 01:43:27;;;;;;;1.60;1.50;;;13.10;99.90;;;;;;4154114;28;21314;-65
2021/05/24 01:45:28;;;;;;;1.93;1.40;;;13.10;99.90;;;;;;4155016;28;20064;-66
2021/05/24 01:47:29;;;;;;;2.50;2.00;;;13.10;99.90;;;;;;4154401;28;20103;-65
2021/05/24 01:49:32;;;;;;;1.70;1.30;;;13.10;99.90;;;;;;4154422;28;20037;-67
2021/05/24 01:51:33;;;;;;;4.30;1.83;;;13.10;99.90;;;;;;4154053;28;20046;-64
2021/05/24 01:53:36;;;;;;;1.27;1.20;;;13.10;99.90;;;;;;4154643;28;20041;-64
2021/05/24 01:55:37;;;;;;;4.33;1.20;;;13.10;99.90;;;;;;4155008;28;20477;-65
2021/05/24 01:57:39;;;;;;;1.43;1.30;;;13.00;99.90;;;;;;4154893;28;20037;-65
2021/05/24 01:59:41;;;;;;;2.37;1.40;;;13.00;99.90;;;;;;4154863;28;20026;-66
2021/05/24 02:01:42;;;;;;;2.57;1.30;;;13.00;99.90;;;;;;4153986;28;20053;-66
2021/05/24 02:03:45;;;;;;;2.20;1.33;;;13.00;99.90;;;;;;4154114;28;20049;-67
2021/05/24 02:05:46;;;;;;;3.07;0.97;;;13.00;99.90;;;;;;4154004;28;20091;-65
2021/05/24 02:07:49;;;;;;;2.93;1.20;;;12.90;99.90;;;;;;4154699;28;20041;-65
2021/05/24 02:09:50;;;;;;;0.83;0.80;;;12.90;99.90;;;;;;4154539;28;20038;-65
2021/05/24 02:11:51;;;;;;;1.00;0.90;;;12.80;99.90;;;;;;4157222;28;20045;-66
2021/05/24 02:13:53;;;;;;;1.83;1.17;;;12.80;99.90;;;;;;4156448;28;20399;-66
2021/05/24 02:15:54;;;;;;;2.17;0.90;;;12.70;99.90;;;;;;4157672;28;20029;-67
2021/05/24 02:17:56;;;;;;;1.70;1.00;;;12.70;99.90;;;;;;4156739;28;20053;-65
2021/05/24 02:19:58;;;;;;;3.53;1.00;;;12.70;99.90;;;;;;4157508;28;20045;-65
2021/05/24 02:21:59;;;;;;;0.83;0.80;;;12.60;99.90;;;;;;4157546;28;20071;-64
2021/05/24 02:24:00;;;;;;;1.20;1.00;;;12.60;99.90;;;;;;4156321;28;20041;-66
2021/05/24 02:26:01;;;;;;;1.67;0.70;;;12.50;99.90;;;;;;4157757;28;20095;-65
2021/05/24 02:28:04;;;;;;;3.03;1.13;;;12.50;99.90;;;;;;4156850;28;20045;-65
2021/05/24 02:30:06;;;;;;;0.80;0.80;;;12.50;99.90;;;;;;4156936;28;20053;-66
2021/05/24 02:32:08;;;;;;;3.00;1.03;;;12.50;99.90;;;;;;4156627;28;20041;-64
2021/05/24 02:34:10;;;;;;;4.03;1.10;;;12.50;99.90;;;;;;4156750;28;20650;-66
2021/05/24 02:36:11;;;;;;;1.17;0.80;;;12.40;99.90;;;;;;4155493;28;20046;-64
2021/05/24 02:38:13;;;;;;;3.40;1.10;;;12.40;99.90;;;;;;4157422;28;20042;-65
2021/05/24 02:40:16;;;;;;;2.23;1.07;;;12.40;99.90;;;;;;4157117;28;20029;-66
2021/05/24 02:42:17;;;;;;;1.20;0.90;;;12.40;99.90;;;;;;4157590;28;20091;-65
2021/05/24 02:44:20;;;;;;;1.03;0.90;;;12.40;99.90;;;;;;4157109;28;20025;-66
2021/05/24 02:46:22;;;;;;;3.87;0.90;;;12.40;99.90;;;;;;4157380;28;20033;-65
2021/05/24 02:48:23;;;;;;;1.77;0.63;;;12.40;99.90;;;;;;4155959;28;20087;-66
2021/05/24 02:50:25;;;;;;;3.20;0.83;;;12.30;99.90;;;;;;4157079;28;20079;-66
2021/05/24 02:52:27;;;;;;;2.37;0.80;;;12.30;99.90;;;;;;4156059;28;20091;-65
2021/05/24 02:54:28;;;;;;;1.53;1.10;;;12.30;99.90;;;;;;4156532;28;20041;-65
2021/05/24 02:56:29;;;;;;;1.33;1.00;;;12.30;99.90;;;;;;4156938;28;20047;-63
2021/05/24 02:58:30;;;;;;;2.77;0.97;;;12.20;99.90;;;;;;4156146;28;20041;-64
2021/05/24 03:00:32;;;;;;;2.30;0.90;;;12.30;99.90;;;;;;4156892;28;20037;-64
2021/05/24 03:02:33;;;;;;;2.20;1.27;;;12.30;99.90;;;;;;4156032;28;20087;-64
2021/05/24 03:04:35;;;;;;;2.23;0.80;;;12.60;99.90;;;;;;4155701;28;20033;-64
2021/05/24 03:06:36;;;;;;;1.77;0.87;;;12.90;99.90;;;;;;4156629;28;20115;-63
2021/05/24 03:08:37;;;;;;;3.83;1.40;;;13.20;99.90;;;;;;4156852;28;20567;-65
2021/05/24 03:10:39;;;;;;;1.60;0.70;;;13.50;99.90;;;;;;4156347;28;20029;-65
2021/05/24 03:12:41;;;;;;;0.87;0.87;;;13.70;99.90;;;;;;4156230;28;20033;-66
2021/05/24 03:14:42;;;;;;;0.63;0.63;;;14.00;99.90;;;;;;4156146;28;20485;-66
2021/05/24 03:16:44;;;;;;;1.23;0.87;;;14.30;99.90;;;;;;4156560;28;20559;-63
2021/05/24 03:18:45;;;;;;;1.83;0.80;;;14.60;99.90;;;;;;4155241;28;20038;-61
2021/05/24 03:20:46;;;;;;;1.73;0.93;;;14.90;99.90;;;;;;4156537;28;20107;-63
2021/05/24 03:22:48;;;;;;;2.03;0.73;;;15.20;99.90;;;;;;4155607;28;20820;-63
2021/05/24 03:24:49;;;;;;;1.50;0.67;;;15.30;99.90;;;;;;4156329;28;20033;-64
2021/05/24 03:26:50;;;;;;;3.63;0.70;;;15.30;99.90;;;;;;4156349;28;20541;-66
2021/05/24 03:28:51;;;;;;;2.10;0.73;;;15.50;99.90;;;;;;4156236;28;20041;-64
2021/05/24 03:30:52;;;;;;;2.90;0.80;;;15.50;99.90;;;;;;4150267;28;20050;-64
2021/05/24 03:32:55;;;;;;;0.73;0.70;;;15.50;99.90;;;;;;4139580;28;20050;-65
2021/05/24 03:34:56;;;;;;;1.83;0.80;;;15.50;99.90;;;;;;4139880;28;20046;-64
2021/05/24 03:36:57;;;;;;;3.10;0.90;;;15.20;99.90;;;;;;4139837;28;20096;-63
2021/05/24 03:38:58;;;;;;;5.37;0.73;;;15.20;99.90;;;;;;4138684;28;20081;-62
2021/05/24 03:41:00;;;;;;;2.73;0.83;;;15.20;99.90;;;;;;4145004;28;20045;-65
2021/05/24 03:43:01;;;;;;;1.20;0.70;;;15.30;99.90;;;;;;4156069;28;20370;-67
2021/05/24 03:45:05;;;;;;;3.47;0.73;;;15.70;99.90;;;;;;4155705;28;20030;-63
2021/05/24 03:47:06;;;;;;;1.83;0.70;;;16.10;99.90;;;;;;4155904;28;20096;-68
2021/05/24 03:49:08;;;;;;;2.93;0.93;;;16.70;99.90;;;;;;4154612;28;20091;-65
2021/05/24 03:51:09;;;;;;;7.10;1.00;;;17.30;99.90;;;;;;4155886;28;20490;-67
2021/05/24 03:53:10;;;;;;;4.10;0.80;;;17.70;99.90;;;;;;4154884;28;20088;-68
2021/05/24 03:55:19;;;;;;;3.60;1.15;;;18.20;99.90;;;;;;4155845;28;20091;-65
2021/05/24 03:57:20;;;;;;;1.65;1.13;;;18.70;99.90;;;;;;4153680;28;20507;-63
2021/05/24 03:59:21;;;;;;;1.75;0.85;;;18.80;99.90;;;;;;4155097;28;20084;-66
2021/05/24 04:01:22;;;;;;;4.38;0.63;;;18.70;99.90;;;;;;4155209;28;20387;-65
2021/05/24 04:03:24;;;;;;;0.70;0.60;;;18.70;99.90;;;;;;4154441;28;20049;-64
2021/05/24 04:07:30;;;;;;;6.88;0.70;;;18.70;99.90;;;;;;4139078;28;20064;-62
2021/05/24 04:09:32;;;;;;;1.13;0.57;;;18.50;99.90;;;;;;4138495;28;20081;-65
2021/05/24 04:11:33;;;;;;;1.40;0.70;;;18.60;99.90;;;;;;4153611;28;20131;-64
2021/05/24 04:13:35;;;;;;;2.70;0.60;;;18.70;99.90;;;;;;4155434;28;20079;-65
2021/05/24 04:15:36;;;;;;;2.13;0.50;;;18.90;99.90;;;;;;4154602;28;20496;-66
2021/05/24 04:17:39;;;;;;;0.95;0.70;;;18.50;99.90;;;;;;4153311;28;20040;-66
2021/05/24 04:19:43;;;;;;;1.48;0.60;;;18.00;99.90;;;;;;4154253;28;20033;-67
2021/05/24 04:21:44;;;;;;;1.23;0.55;;;17.80;99.90;;;;;;4155439;28;20134;-67
2021/05/24 04:23:46;;;;;;;0.93;0.40;;;17.80;99.90;;;;;;4153861;28;20943;-65
2021/05/24 04:25:47;;;;;;;1.23;0.50;;;18.00;99.90;;;;;;4155594;28;20071;-66
2021/05/24 04:27:48;;;;;;;1.00;0.50;;;18.00;99.90;;;;;;4155153;28;20151;-66
2021/05/24 04:29:49;;;;;;;3.17;0.60;;;18.00;99.90;;;;;;4155033;28;20025;-64
2021/05/24 04:31:50;;;;;;;0.80;0.50;;;18.10;99.90;;;;;;4154349;28;20363;-63
2021/05/24 04:33:52;;;;;;;3.78;1.00;;;18.50;99.90;;;;;;4152990;28;20045;-66
2021/05/24 04:35:53;;;;;;;6.07;1.20;;;18.90;99.90;;;;;;4154653;28;20041;-64
2021/05/24 04:37:54;;;;;;;1.10;1.00;;;19.00;99.90;;;;;;4153929;28;20037;-64
2021/05/24 04:39:55;;;;;;;1.65;0.93;;;19.00;99.90;;;;;;4152678;28;20782;-64
2021/05/24 04:41:57;;;;;;;0.60;0.45;;;18.20;99.90;;;;;;4154145;28;20144;-64
2021/05/24 04:44:09;;;;;;;1.15;1.05;;;17.30;99.90;;;;;;4154424;28;20092;-64
2021/05/24 04:46:11;;;;;;;3.45;1.52;;;16.80;99.90;;;;;;4153422;28;20053;-66
2021/05/24 04:48:12;;;;;;;2.80;1.10;;;16.40;99.90;;;;;;4154563;28;20540;-65
2021/05/24 04:50:14;;;;;;;2.50;1.48;;;16.10;99.90;;;;;;4153418;28;20037;-65
2021/05/24 04:52:16;;;;;;;2.45;0.90;;;15.90;99.90;;;;;;4154914;28;20057;-63
2021/05/24 04:54:17;;;;;;;3.75;0.90;;;15.60;99.90;;;;;;4153646;28;20041;-66
2021/05/24 04:56:18;;;;;;;3.08;1.45;;;15.30;99.90;;;;;;4154880;28;20783;-63
2021/05/24 04:58:20;;;;;;;2.40;0.90;;;15.10;99.90;;;;;;4153982;28;20061;-66
2021/05/24 05:00:21;;;;;;;2.92;1.33;;;15.00;99.90;;;;;;4154877;28;20445;-65
2021/05/24 05:02:23;;;;;;;5.05;1.77;;;14.70;99.90;;;;;;4154327;28;20049;-67
2021/05/24 05:04:24;;;;;;;3.83;2.00;;;14.60;99.90;;;;;;4154307;28;20786;-66
2021/05/24 05:06:25;;;;;;;6.10;1.05;;;14.60;99.90;;;;;;4154572;28;20083;-64
2021/05/24 05:08:26;;;;;;;2.33;1.40;;;14.70;99.90;;;;;;4154442;28;20064;-65
2021/05/24 05:10:27;;;;;;;3.10;1.00;;;15.00;99.90;;;;;;4155103;28;20026;-64
2021/05/24 05:12:29;;;;;;;6.80;2.30;;;15.00;99.90;;;;;;4154562;28;20499;-66
2021/05/24 05:14:30;;;;;;;6.47;1.77;;;15.00;99.90;;;;;;4154524;28;20049;-63
2021/05/24 05:16:31;;;;;;;3.00;1.63;;;15.00;99.90;;;;;;4154609;28;20055;-64
2021/05/24 05:18:33;;;;;;;5.67;1.77;;;15.00;99.90;;;;;;4154973;28;20033;-65
2021/05/24 05:20:34;;;;;;;2.00;1.60;;;15.00;99.90;;;;;;4154358;28;20091;-65
2021/05/24 05:22:37;;;;;;;7.37;2.30;;;15.00;99.90;;;;;;4154838;28;20091;-64
2021/05/24 05:24:38;;;;;;;2.33;2.13;;;14.90;99.90;;;;;;4153734;28;20072;-64
2021/05/24 05:26:39;;;;;;;8.57;2.10;;;14.90;99.90;;;;;;4154885;28;20531;-67
2021/05/24 05:28:41;;;;;;;3.17;1.20;;;14.80;99.90;;;;;;4154381;28;20099;-64
2021/05/24 05:30:42;;;;;;;1.37;0.87;;;15.00;99.90;;;;;;4154673;28;20052;-64
2021/05/24 05:32:43;;;;;;;4.03;2.10;;;14.90;99.90;;;;;;4153826;28;20095;-63
2021/05/24 05:34:44;;;;;;;1.87;1.50;;;14.80;99.90;;;;;;4154634;28;20041;-65
2021/05/24 05:36:45;;;;;;;5.27;1.60;;;14.70;99.90;;;;;;4154153;28;20079;-62
2021/05/24 05:38:46;;;;;;;2.80;1.30;;;14.80;99.90;;;;;;4154650;28;20143;-64
2021/05/24 05:40:50;;;;;;;6.33;1.30;;;14.80;99.90;;;;;;4154898;28;20429;-63
2021/05/24 05:42:53;;;;;;;1.53;0.70;;;14.60;99.90;;;;;;4154275;28;20037;-64
2021/05/24 05:44:54;;;;;;;2.37;0.87;;;14.50;99.90;;;;;;4157076;28;20087;-65
2021/05/24 05:46:55;;;;;;;2.30;0.80;;;14.40;99.90;;;;;;4157192;28;20072;-65
2021/05/24 05:48:56;;;;;;;0.77;0.60;;;14.20;99.90;;;;;;4157393;28;20038;-67
2021/05/24 05:50:57;;;;;;;2.13;0.80;;;14.10;99.90;;;;;;4157067;28;20466;-65
2021/05/24 05:52:59;;;;;;;4.33;1.23;;;14.10;99.90;;;;;;4157308;28;20092;-66
2021/05/24 05:55:00;;;;;;;3.93;0.90;;;14.20;99.90;;;;;;4157187;28;20111;-64
2021/05/24 05:57:01;;;;;;;0.60;0.50;;;14.40;99.90;;;;;;4157222;28;20154;-63
2021/05/24 05:59:03;;;;;;;3.67;0.90;;;15.00;99.90;;;;;;4156989;28;20482;-63
2021/05/24 06:01:06;;;;;;;3.60;1.40;;;15.60;99.90;;;;;;4157406;28;20030;-65
2021/05/24 06:03:07;;;;;;;2.73;0.53;;;16.10;99.90;;;;;;4156168;28;20576;-67
2021/05/24 06:05:09;;;;;;;4.47;0.80;;;16.80;99.90;;;;;;4157018;28;20021;-65
2021/05/24 06:07:10;;;;;;;2.57;0.70;;;17.10;99.90;;;;;;4156203;28;20072;-62
2021/05/24 06:09:11;;;;;;;2.33;0.67;;;17.50;99.90;;;;;;4157435;28;20428;-65
2021/05/24 06:11:12;;;;;;;3.93;1.20;;;18.10;99.90;;;;;;4156436;28;20033;-63
2021/05/24 06:13:13;;;;;;;6.72;0.80;;;18.10;99.90;;;;;;4156406;28;20430;-64
2021/05/24 06:15:17;;;;;;;14.43;1.65;;;17.70;99.90;;;;;;4156993;28;20054;-65
2021/05/24 06:17:18;;;;;;;1.63;0.60;;;17.50;99.90;;;;;;4157019;28;20037;-64
2021/05/24 06:19:20;;;;;;;1.95;1.13;;;17.20;99.90;;;;;;4156581;28;20046;-65
2021/05/24 06:21:21;;;;;;;4.32;0.82;;;17.40;99.90;;;;;;4156928;28;20025;-67
2021/05/24 06:23:22;;;;;;;2.80;0.73;;;17.90;99.90;;;;;;4157101;28;20025;-67
2021/05/24 06:25:23;;;;;;;1.40;0.70;;;18.30;99.90;;;;;;4154833;28;20041;-67
2021/05/24 06:27:24;;;;;;;2.00;0.57;;;18.50;99.90;;;;;;4157397;28;20083;-64
2021/05/24 06:29:26;;;;;;;1.80;0.75;;;18.50;99.90;;;;;;4157327;28;20093;-65
2021/05/24 06:31:27;;;;;;;1.42;0.47;;;18.70;99.90;;;;;;4157249;28;20037;-66
2021/05/24 06:33:28;;;;;;;1.88;0.70;;;18.70;99.90;;;;;;4155943;28;20045;-65
2021/05/24 06:35:29;;;;;;;1.98;0.40;;;18.70;99.90;;;;;;4154946;28;20045;-65
2021/05/24 06:37:31;;;;;;;1.63;0.40;;;18.70;99.90;;;;;;4155783;28;20457;-67
2021/05/24 06:39:32;;;;;;;4.05;0.60;;;18.70;99.90;;;;;;4156874;28;20050;-67
2021/05/24 06:41:33;;;;;;;0.75;0.40;;;18.60;99.90;;;;;;4156189;28;20091;-67
2021/05/24 06:43:34;;;;;;;0.80;0.30;;;18.70;99.70;;;;;;4156720;28;20037;-65
2021/05/24 06:45:35;;;;;;;1.35;0.30;;;18.50;99.30;;;;;;4156465;28;20091;-63
2021/05/24 06:47:37;;;;;;;0.70;0.50;;;18.70;99.30;;;;;;4156174;28;20061;-65
2021/05/24 06:49:39;;;;;;;2.25;0.60;;;18.70;99.00;;;;;;4155852;28;20045;-68
2021/05/24 06:51:40;;;;;;;1.10;0.40;;;19.20;98.50;;;;;;4154452;28;20891;-64
2021/05/24 06:53:41;;;;;;;1.02;0.25;;;19.30;98.00;;;;;;4156566;28;20033;-65
2021/05/24 06:55:42;;;;;;;1.30;0.40;;;19.40;97.40;;;;;;4154901;28;20053;-64
2021/05/24 06:57:43;;;;;;;1.10;0.20;;;19.40;96.90;;;;;;4156489;28;20045;-64
2021/05/24 06:59:44;;;;;;;1.63;0.40;;;19.20;97.10;;;;;;4156289;28;20458;-66
2021/05/24 07:01:46;;;;;;;0.98;0.40;;;19.20;97.40;;;;;;4156453;28;20029;-63
2021/05/24 07:03:47;;;;;;;1.70;0.43;;;19.20;97.50;;;;;;4155491;28;20065;-63
2021/05/24 07:05:48;;;;;;;1.17;0.35;;;19.30;97.30;;;;;;4156242;28;20377;-68
2021/05/24 07:07:49;;;;;;;0.95;0.20;;;19.40;96.90;;;;;;4155569;28;20099;-66
2021/05/24 07:09:50;;;;;;;2.05;0.65;;;19.50;96.60;;;;;;4155686;28;20042;-64
2021/05/24 07:11:53;;;;;;;3.47;0.25;;;19.60;96.30;;;;;;4155874;28;20425;-63
2021/05/24 07:13:54;;;;;;;2.78;0.50;;;19.70;95.90;;;;;;4156168;28;20026;-64
2021/05/24 07:15:55;;;;;;;1.27;0.20;;;19.90;95.40;;;;;;4156350;28;20046;-64
2021/05/24 07:17:56;;;;;;;2.25;0.32;;;20.00;94.90;;;;;;4155943;28;20474;-65
2021/05/24 07:19:58;;;;;;;0.45;0.30;;;20.10;94.30;;;;;;4156672;28;20038;-63
2021/05/24 07:21:59;;;;;;;0.95;0.60;;;20.00;93.70;;;;;;4155581;28;20099;-66
2021/05/24 07:24:00;;;;;;;1.60;0.40;;;20.20;93.70;;;;;;4156633;28;20486;-66
2021/05/24 07:26:01;;;;;;;1.88;0.40;;;20.60;93.50;;;;;;4155165;28;20033;-66
2021/05/24 07:28:03;;;;;;;0.75;0.30;;;20.80;92.80;;;;;;4155961;28;20021;-66
2021/05/24 07:30:05;;;;;;;9.75;4.32;;;20.90;92.10;;;;;;4154910;28;20029;-66
2021/05/24 07:32:10;;;;;;;4.78;2.05;;;21.10;91.70;;;;;;4155838;28;20037;-66
2021/05/24 07:34:11;;;;;;;1.88;0.30;;;21.10;90.70;;;;;;4155189;28;20049;-67
2021/05/24 07:36:12;;;;;;;0.70;0.50;;;21.10;90.10;;;;;;4155920;28;20071;-63
2021/05/24 07:38:13;;;;;;;1.20;0.20;;;21.10;88.70;;;;;;4154275;28;20076;-65
2021/05/24 07:40:16;;;;;;;2.45;0.20;;;21.30;87.90;;;;;;4156801;28;20928;-64
2021/05/24 07:42:17;;;;;;;1.85;0.28;;;21.30;85.90;;;;;;4155349;28;20312;-65
2021/05/24 07:44:18;;;;;;;0.30;0.03;;;21.30;85.70;;;;;;4155751;28;20437;-68
2021/05/24 07:46:20;;;;;;;1.33;0.30;;;21.70;84.60;;;;;;4155393;28;20518;-66
2021/05/24 07:48:21;;;;;;;0.85;0.52;;;21.60;84.00;;;;;;4155988;28;20021;-67
2021/05/24 07:50:22;;;;;;;0.25;0.20;;;21.10;83.20;;;;;;4155513;28;20570;-63
2021/05/24 07:52:24;;;;;;;3.35;0.30;;;20.40;84.40;;;;;;4155255;28;20021;-65
2021/05/24 07:54:25;;;;;;;2.33;0.50;;;20.30;85.30;;;;;;4155389;28;20100;-66
2021/05/24 07:56:26;;;;;;;0.75;0.32;;;20.30;87.00;;;;;;4154858;28;20440;-64
2021/05/24 07:58:28;;;;;;;1.95;0.40;;;19.50;88.00;;;;;;4155508;28;20754;-65
2021/05/24 08:00:29;;;;;;;1.08;0.52;;;18.80;90.40;;;;;;4155001;28;20420;-66
2021/05/24 08:02:30;;;;;;;2.47;0.77;;;18.80;91.10;;;;;;4155166;28;20099;-65
2021/05/24 08:04:31;;;;;;;9.77;1.00;;;18.80;91.60;;;;;;4154357;28;20029;-65
2021/05/24 08:06:33;;;;;;;5.25;0.73;;;18.90;92.00;;;;;;4155645;28;20155;-69
2021/05/24 08:08:34;;;;;;;1.85;0.30;;;19.00;91.70;;;;;;4154446;28;20041;-65
2021/05/24 08:10:36;;;;;;;1.77;0.60;;;19.30;92.00;;;;;;4155143;28;20094;-67
2021/05/24 08:12:39;;;;;;;2.35;0.40;;;19.70;91.30;;;;;;4154211;28;20426;-64
2021/05/24 08:14:40;;;;;;;2.95;0.63;;;20.20;90.90;;;;;;4154245;28;20099;-64
2021/05/24 08:16:43;;;;;;;4.63;0.47;;;20.00;90.10;;;;;;4155093;28;20037;-65
2021/05/24 08:18:44;;;;;;;8.38;0.50;;;20.00;90.20;;;;;;4154995;28;20037;-65
2021/05/24 08:20:48;;;;;;;1.55;0.20;;;20.20;89.90;;;;;;4152934;28;20057;-65
2021/05/24 08:22:49;;;;;;;1.83;0.20;;;20.10;88.10;;;;;;4154206;28;20045;-64
2021/05/24 08:24:50;;;;;;;3.65;0.55;;;19.60;86.90;;;;;;4153259;28;20033;-65
2021/05/24 08:26:52;;;;;;;3.53;0.55;;;19.20;88.70;;;;;;4154188;28;20029;-66
2021/05/24 08:28:53;;;;;;;2.35;0.90;;;19.20;89.80;;;;;;4155145;28;20041;-64
2021/05/24 08:30:55;;;;;;;4.10;0.50;;;19.20;89.30;;;;;;4154652;28;20138;-67
2021/05/24 08:32:56;;;;;;;4.90;0.85;;;19.30;89.40;;;;;;4155363;28;20060;-66
2021/05/24 08:34:58;;;;;;;7.35;0.80;;;19.50;90.00;;;;;;4153865;28;20087;-64
2021/05/24 08:36:59;;;;;;;0.77;0.40;;;19.80;89.50;;;;;;4155251;28;20033;-65
2021/05/24 08:39:00;;;;;;;0.43;0.17;;;19.80;88.10;;;;;;4153973;28;20041;-65
2021/05/24 08:41:08;;;;;;;0.70;0.13;;;19.30;86.80;;;;;;4154987;28;20021;-64
2021/05/24 08:43:10;;;;;;;1.02;0.10;;;19.10;87.10;;;;;;4153766;28;20115;-67
2021/05/24 08:45:13;;;;;;;0.30;0.10;;;18.90;87.20;;;;;;4155368;28;20087;-63
2021/05/24 08:47:14;;;;;;;1.95;0.20;;;18.90;88.00;;;;;;4153563;28;20064;-63
2021/05/24 08:49:15;;;;;;;1.38;0.20;;;18.80;88.10;;;;;;4154739;28;20037;-65
2021/05/24 08:51:17;;;;;;;3.28;0.50;;;18.60;90.00;;;;;;4154120;28;20433;-64
2021/05/24 08:53:18;;;;;;;0.47;0.30;;;18.70;90.50;;;;;;4153857;28;20107;-64
2021/05/24 08:55:19;;;;;;;2.95;0.40;;;18.60;91.50;;;;;;4153863;28;20115;-63
2021/05/24 08:57:20;;;;;;;0.95;0.40;;;18.60;91.40;;;;;;4154056;28;20494;-64
2021/05/24 08:59:22;;;;;;;1.38;0.35;;;18.60;91.70;;;;;;4155110;28;20033;-64
2021/05/24 09:01:23;;;;;;;3.15;0.60;;;18.50;93.20;;;;;;4154306;28;20099;-63
2021/05/24 09:03:25;;;;;;;0.55;0.28;;;18.30;95.20;;;;;;4154625;28;20053;-63
2021/05/24 09:05:32;;;;;;;2.28;0.50;;;18.10;95.90;;;;;;4153859;28;20091;-66
2021/05/24 09:07:49;;;;;;;2.70;0.50;;;18.00;96.70;;;;;;4154422;28;20075;-63
2021/05/24 09:10:05;;;;;;;1.05;0.25;;;17.90;97.60;;;;;;4153555;28;20563;-66
2021/05/24 09:12:20;;;;;;;2.00;0.22;;;18.10;97.80;;;;;;4154844;28;20029;-64
2021/05/24 09:14:24;;;;;;;1.15;0.32;;;17.90;97.60;;;;;;4154122;28;20432;-65
2021/05/24 09:16:30;;;;;;;3.25;0.50;;;17.90;98.10;;;;;;4154474;28;20091;-66
2021/05/24 09:18:31;;;;;;;3.25;0.60;;;18.10;98.10;;;;;;4155081;28;20449;-63
2021/05/24 09:20:39;;;;;;;0.28;0.28;;;18.30;98.00;;;;;;4160114;28;20038;-64
2021/05/24 09:22:41;;;;;;;0.25;0.25;;;18.30;97.50;;;;;;4159193;28;20033;-65
2021/05/24 09:24:45;;;;;;;1.98;1.00;;;18.20;97.60;;;;;;4160089;28;20114;-65
2021/05/24 09:26:46;;;;;;;2.53;1.45;;;18.20;97.20;;;;;;4159061;28;20773;-63
2021/05/24 09:28:50;;;;;;;0.55;0.28;;;18.30;97.10;;;;;;4159974;28;20037;-65
2021/05/24 09:30:53;;;;;;;1.80;1.10;;;18.30;96.90;;;;;;4159647;28;20067;-64
2021/05/24 09:33:13;;;;;;;1.17;0.50;;;18.40;96.80;;;;;;4159349;28;20052;-64
2021/05/24 09:35:14;;;;;;;1.67;0.60;;;18.60;96.70;;;;;;4159178;28;20110;-63
2021/05/24 09:37:17;;;;;;;0.82;0.43;;;18.50;97.00;;;;;;4159939;28;20079;-64
2021/05/24 09:39:19;;;;;;;1.35;0.40;;;18.40;97.10;;;;;;4159162;28;20030;-64
2021/05/24 09:41:21;;;;;;;0.43;0.20;;;18.20;97.30;;;;;;4160296;28;20182;-64
2021/05/24 09:43:31;;;;;;;0.60;0.30;;;18.20;97.20;;;;;;4159369;28;20033;-64
2021/05/24 09:45:39;;;;;;;0.55;0.20;;;18.10;97.50;;;;;;4159521;28;20029;-63
2021/05/24 09:47:40;;;;;;;1.77;0.20;;;18.20;97.20;;;;;;4159027;28;20029;-66
2021/05/24 09:49:44;;;;;;;4.50;0.43;;;18.20;96.80;;;;;;4159681;28;20099;-66
2021/05/24 09:51:45;;;;;;;1.38;0.50;;;18.50;96.80;;;;;;4159189;28;20037;-65
2021/05/24 09:54:11;;;;;;;2.65;0.52;;;18.60;96.60;;;;;;4159289;28;20751;-65
2021/05/24 09:56:15;;;;;;;3.25;1.25;;;18.40;96.90;;;;;;4158752;28;20078;-66
2021/05/24 09:58:20;;;;;;;1.00;0.55;;;18.20;96.80;;;;;;4158989;28;20099;-67
2021/05/24 10:00:27;;;;;;;0.80;0.20;;;18.10;96.90;;;;;;4159823;28;20111;-65
2021/05/24 10:02:30;;;;;;;0.93;0.38;;;18.00;97.20;;;;;;4159159;28;20057;-66
2021/05/24 10:04:33;;;;;;;2.78;1.02;;;18.00;97.50;;;;;;4159549;28;20126;-63
2021/05/24 10:06:35;;;;;;;1.30;0.17;;;18.10;97.60;;;;;;4159044;28;20105;-63
2021/05/24 10:08:36;;;;;;;0.65;0.30;;;18.10;97.50;;;;;;4159476;28;20425;-63
2021/05/24 10:10:38;;;;;;;0.88;0.40;;;18.10;97.30;;;;;;4158772;28;20033;-63
2021/05/24 10:12:41;;;;;;;0.63;0.40;;;18.20;97.10;;;;;;4159248;28;20103;-63
2021/05/24 10:14:43;;;;;;;1.92;0.38;;;18.30;97.50;;;;;;4158075;28;20108;-63
2021/05/24 10:16:48;;;;;;;0.45;0.20;;;18.50;96.90;;;;;;4159149;28;20053;-64
2021/05/24 10:18:49;;;;;;;3.42;0.40;;;18.70;96.60;;;;;;4158534;28;20428;-66
2021/05/24 10:20:51;;;;;;;1.38;0.20;;;18.80;95.90;;;;;;4159222;28;20041;-63
2021/05/24 10:22:52;;;;;;;1.98;0.30;;;18.80;95.80;;;;;;4158251;28;20425;-67
2021/05/24 10:24:53;;;;;;;1.13;0.20;;;18.70;96.00;;;;;;4159558;28;20535;-63
2021/05/24 10:26:56;;;;;;;1.75;0.30;;;18.70;96.10;;;;;;4157522;28;21144;-62
2021/05/24 10:29:01;;;;;;;1.33;0.20;;;18.60;95.90;;;;;;4159528;28;20029;-63
2021/05/24 10:31:03;;;;;;;0.57;0.30;;;18.60;96.00;;;;;;4155287;28;20449;-65
2021/05/24 10:33:12;;;;;;;1.55;0.47;;;18.60;96.00;;;;;;4156944;28;20021;-65
2021/05/24 10:35:39;;;;;;;1.25;0.30;;;18.60;95.80;;;;;;4155968;28;20126;-64
2021/05/24 10:37:42;;;;;;;1.88;0.20;;;18.40;95.40;;;;;;4156709;28;20091;-66
2021/05/24 10:40:01;;;;;;;0.90;0.25;;;18.40;96.10;;;;;;4156630;28;20033;-66
2021/05/24 10:42:02;;;;;;;2.33;0.30;;;18.30;96.10;;;;;;4155361;28;20037;-65